sensor_id;sensor_type;location;lat;lon;timestamp;pressure;altitude;pressure_sealevel;temperature;humidity
15405;BME280;7801;48.124;11.590;2023-05-23T00:01:38;95135.38;;;18.21;83.14
15405;BME280;7801;48.124;11.590;2023-05-23T00:04:04;95131.28;;;18.11;82.60
15405;BME280;7801;48.124;11.590;2023-05-23T00:06:29;95133.16;;;17.95;83.18
15405;BME280;7801;48.124;11.590;2023-05-23T00:08:55;95129.03;;;17.98;83.22
15405;BME280;7801;48.124;11.590;2023-05-23T00:11:21;95126.91;;;17.91;83.24
15405;BME280;7801;48.124;11.590;2023-05-23T00:13:51;95133.84;;;17.92;83.63
15405;BME280;7801;48.124;11.590;2023-05-23T00:16:17;95131.25;;;17.96;83.88
15405;BME280;7801;48.124;11.590;2023-05-23T00:18:42;95138.28;;;17.84;82.97
15405;BME280;7801;48.124;11.590;2023-05-23T00:21:10;95140.00;;;17.93;84.07
15405;BME280;7801;48.124;11.590;2023-05-23T00:23:35;95139.22;;;17.92;83.81
15405;BME280;7801;48.124;11.590;2023-05-23T00:26:00;95137.31;;;17.93;83.27
15405;BME280;7801;48.124;11.590;2023-05-23T00:28:26;95139.75;;;17.98;83.11
15405;BME280;7801;48.124;11.590;2023-05-23T00:30:52;95128.25;;;17.97;81.82
15405;BME280;7801;48.124;11.590;2023-05-23T00:33:17;95136.28;;;17.97;83.08
15405;BME280;7801;48.124;11.590;2023-05-23T00:35:46;95138.09;;;17.93;82.61
15405;BME280;7801;48.124;11.590;2023-05-23T00:38:11;95145.19;;;17.85;82.62
15405;BME280;7801;48.124;11.590;2023-05-23T00:40:36;95141.97;;;17.80;83.33
15405;BME280;7801;48.124;11.590;2023-05-23T00:43:02;95138.28;;;17.84;83.04
15405;BME280;7801;48.124;11.590;2023-05-23T00:45:27;95144.75;;;17.83;82.69
15405;BME280;7801;48.124;11.590;2023-05-23T00:47:53;95141.41;;;17.87;84.26
15405;BME280;7801;48.124;11.590;2023-05-23T00:50:19;95139.31;;;17.96;84.80
15405;BME280;7801;48.124;11.590;2023-05-23T00:52:45;95138.78;;;17.90;84.03
15405;BME280;7801;48.124;11.590;2023-05-23T00:55:12;95138.28;;;18.00;83.65
15405;BME280;7801;48.124;11.590;2023-05-23T00:57:39;95138.72;;;18.02;83.60
15405;BME280;7801;48.124;11.590;2023-05-23T01:00:09;95146.25;;;17.97;84.67
15405;BME280;7801;48.124;11.590;2023-05-23T01:02:44;95138.63;;;17.83;83.75
15405;BME280;7801;48.124;11.590;2023-05-23T01:05:11;95143.63;;;17.84;83.90
15405;BME280;7801;48.124;11.590;2023-05-23T01:07:42;95136.09;;;17.90;83.22
15405;BME280;7801;48.124;11.590;2023-05-23T01:10:08;95139.56;;;17.91;83.67
15405;BME280;7801;48.124;11.590;2023-05-23T01:15:37;95139.31;;;17.96;83.40
15405;BME280;7801;48.124;11.590;2023-05-23T01:18:11;95144.50;;;17.89;84.23
15405;BME280;7801;48.124;11.590;2023-05-23T01:20:58;95143.91;;;17.95;84.29
15405;BME280;7801;48.124;11.590;2023-05-23T01:29:25;95152.81;;;17.83;83.93
15405;BME280;7801;48.124;11.590;2023-05-23T01:31:54;95157.41;;;17.99;84.66
15405;BME280;7801;48.124;11.590;2023-05-23T01:34:21;95155.97;;;18.01;83.58
15405;BME280;7801;48.124;11.590;2023-05-23T01:36:51;95158.44;;;17.94;83.58
15405;BME280;7801;48.124;11.590;2023-05-23T01:39:17;95160.78;;;17.96;84.29
15405;BME280;7801;48.124;11.590;2023-05-23T01:41:43;95155.53;;;17.99;83.85
15405;BME280;7801;48.124;11.590;2023-05-23T01:44:08;95151.84;;;17.92;84.21
15405;BME280;7801;48.124;11.590;2023-05-23T01:46:34;95155.50;;;17.83;84.41
15405;BME280;7801;48.124;11.590;2023-05-23T01:49:02;95155.75;;;17.78;84.13
15405;BME280;7801;48.124;11.590;2023-05-23T01:51:28;95161.22;;;17.82;83.48
15405;BME280;7801;48.124;11.590;2023-05-23T01:53:55;95169.09;;;17.91;83.70
15405;BME280;7801;48.124;11.590;2023-05-23T01:56:21;95159.09;;;17.75;82.82
15405;BME280;7801;48.124;11.590;2023-05-23T01:58:46;95164.91;;;17.77;83.67
15405;BME280;7801;48.124;11.590;2023-05-23T02:01:12;95162.44;;;17.84;83.81
15405;BME280;7801;48.124;11.590;2023-05-23T02:03:37;95169.94;;;17.79;84.29
15405;BME280;7801;48.124;11.590;2023-05-23T02:06:03;95168.72;;;17.76;83.69
15405;BME280;7801;48.124;11.590;2023-05-23T02:08:28;95175.75;;;17.81;84.65
15405;BME280;7801;48.124;11.590;2023-05-23T02:10:53;95171.84;;;17.78;83.47
15405;BME280;7801;48.124;11.590;2023-05-23T02:13:19;95176.31;;;17.74;84.46
15405;BME280;7801;48.124;11.590;2023-05-23T02:15:44;95177.22;;;17.78;82.96
15405;BME280;7801;48.124;11.590;2023-05-23T02:18:10;95174.09;;;17.76;84.16
15405;BME280;7801;48.124;11.590;2023-05-23T02:20:35;95173.19;;;17.72;83.59
15405;BME280;7801;48.124;11.590;2023-05-23T02:23:00;95176.50;;;17.66;83.90
15405;BME280;7801;48.124;11.590;2023-05-23T02:25:26;95175.44;;;17.70;84.58
15405;BME280;7801;48.124;11.590;2023-05-23T02:27:51;95184.94;;;17.68;84.02
15405;BME280;7801;48.124;11.590;2023-05-23T02:30:16;95177.69;;;17.68;84.94
15405;BME280;7801;48.124;11.590;2023-05-23T02:32:42;95183.19;;;17.60;85.45
15405;BME280;7801;48.124;11.590;2023-05-23T02:35:07;95178.81;;;17.67;85.55
15405;BME280;7801;48.124;11.590;2023-05-23T02:37:33;95182.84;;;17.61;84.50
15405;BME280;7801;48.124;11.590;2023-05-23T02:39:58;95184.44;;;17.50;84.86
15405;BME280;7801;48.124;11.590;2023-05-23T02:42:23;95183.41;;;17.55;85.65
15405;BME280;7801;48.124;11.590;2023-05-23T02:44:49;95194.81;;;17.51;84.48
15405;BME280;7801;48.124;11.590;2023-05-23T02:47:14;95200.00;;;17.44;85.30
15405;BME280;7801;48.124;11.590;2023-05-23T02:49:39;95200.91;;;17.36;85.58
15405;BME280;7801;48.124;11.590;2023-05-23T02:52:05;95203.50;;;17.21;85.79
15405;BME280;7801;48.124;11.590;2023-05-23T02:54:31;95201.06;;;17.15;87.96
15405;BME280;7801;48.124;11.590;2023-05-23T02:56:56;95206.53;;;17.07;88.00
15405;BME280;7801;48.124;11.590;2023-05-23T02:59:22;95196.91;;;17.06;87.53
15405;BME280;7801;48.124;11.590;2023-05-23T03:01:48;95197.25;;;17.04;88.35
15405;BME280;7801;48.124;11.590;2023-05-23T03:04:13;95196.69;;;17.11;89.37
15405;BME280;7801;48.124;11.590;2023-05-23T03:06:39;95194.19;;;17.30;89.08
15405;BME280;7801;48.124;11.590;2023-05-23T03:09:06;95199.56;;;17.30;88.09
15405;BME280;7801;48.124;11.590;2023-05-23T03:11:32;95198.00;;;17.29;88.84
15405;BME280;7801;48.124;11.590;2023-05-23T03:13:57;95197.66;;;17.31;87.84
15405;BME280;7801;48.124;11.590;2023-05-23T03:16:22;95194.19;;;17.42;88.26
15405;BME280;7801;48.124;11.590;2023-05-23T03:18:48;95199.69;;;17.34;88.05
15405;BME280;7801;48.124;11.590;2023-05-23T03:21:13;95203.94;;;17.35;88.19
15405;BME280;7801;48.124;11.590;2023-05-23T03:23:39;95198.59;;;17.23;89.25
15405;BME280;7801;48.124;11.590;2023-05-23T03:26:04;95200.91;;;17.36;88.29
15405;BME280;7801;48.124;11.590;2023-05-23T03:28:30;95197.22;;;17.29;87.97
15405;BME280;7801;48.124;11.590;2023-05-23T03:30:56;95201.69;;;17.37;88.21
15405;BME280;7801;48.124;11.590;2023-05-23T03:33:21;95202.59;;;17.29;89.00
15405;BME280;7801;48.124;11.590;2023-05-23T03:35:47;95203.12;;;17.34;88.65
15405;BME280;7801;48.124;11.590;2023-05-23T03:38:12;95202.13;;;17.39;88.04
15405;BME280;7801;48.124;11.590;2023-05-23T03:40:37;95206.25;;;17.36;88.75
15405;BME280;7801;48.124;11.590;2023-05-23T03:43:04;95206.31;;;17.24;89.24
15405;BME280;7801;48.124;11.590;2023-05-23T03:45:30;95205.38;;;17.32;89.07
15405;BME280;7801;48.124;11.590;2023-05-23T03:47:56;95210.00;;;17.20;88.68
15405;BME280;7801;48.124;11.590;2023-05-23T03:50:21;95197.91;;;17.26;89.24
15405;BME280;7801;48.124;11.590;2023-05-23T03:52:47;95202.59;;;17.29;88.75
15405;BME280;7801;48.124;11.590;2023-05-23T03:55:12;95206.09;;;17.17;89.31
15405;BME280;7801;48.124;11.590;2023-05-23T03:57:37;95213.97;;;17.26;89.66
15405;BME280;7801;48.124;11.590;2023-05-23T04:00:03;95211.78;;;17.15;89.36
15405;BME280;7801;48.124;11.590;2023-05-23T04:02:30;95212.34;;;17.21;90.07
15405;BME280;7801;48.124;11.590;2023-05-23T04:04:56;95211.34;;;17.13;90.86
15405;BME280;7801;48.124;11.590;2023-05-23T04:07:22;95205.31;;;17.16;90.07
15405;BME280;7801;48.124;11.590;2023-05-23T04:09:47;95213.56;;;17.11;90.20
15405;BME280;7801;48.124;11.590;2023-05-23T04:12:13;95217.81;;;17.12;89.83
15405;BME280;7801;48.124;11.590;2023-05-23T04:14:39;95219.81;;;17.15;90.47
15405;BME280;7801;48.124;11.590;2023-05-23T04:17:04;95216.03;;;17.16;90.40
15405;BME280;7801;48.124;11.590;2023-05-23T04:19:30;95220.72;;;17.07;90.37
15405;BME280;7801;48.124;11.590;2023-05-23T04:21:55;95221.81;;;17.06;90.94
15405;BME280;7801;48.124;11.590;2023-05-23T04:24:21;95221.37;;;17.16;90.25
15405;BME280;7801;48.124;11.590;2023-05-23T04:26:46;95224.06;;;17.04;90.37
15405;BME280;7801;48.124;11.590;2023-05-23T04:29:11;95229.19;;;17.09;90.71
15405;BME280;7801;48.124;11.590;2023-05-23T04:31:36;95235.91;;;17.15;89.79
15405;BME280;7801;48.124;11.590;2023-05-23T04:34:02;95244.63;;;17.12;91.33
15405;BME280;7801;48.124;11.590;2023-05-23T04:36:28;95242.28;;;17.11;91.32
15405;BME280;7801;48.124;11.590;2023-05-23T04:38:54;95239.72;;;17.02;90.40
15405;BME280;7801;48.124;11.590;2023-05-23T04:41:19;95250.66;;;16.97;91.21
15405;BME280;7801;48.124;11.590;2023-05-23T04:43:47;95250.00;;;17.00;91.17
15405;BME280;7801;48.124;11.590;2023-05-23T04:46:18;95253.00;;;16.99;91.69
15405;BME280;7801;48.124;11.590;2023-05-23T04:48:46;95249.31;;;16.91;91.16
15405;BME280;7801;48.124;11.590;2023-05-23T04:51:12;95245.31;;;16.97;91.17
15405;BME280;7801;48.124;11.590;2023-05-23T04:53:38;95240.06;;;17.01;91.35
15405;BME280;7801;48.124;11.590;2023-05-23T04:56:05;95245.31;;;16.97;92.09
15405;BME280;7801;48.124;11.590;2023-05-23T04:58:32;95250.00;;;17.00;92.32
15405;BME280;7801;48.124;11.590;2023-05-23T05:00:58;95245.63;;;16.96;91.90
15405;BME280;7801;48.124;11.590;2023-05-23T05:03:23;95240.16;;;17.04;92.29
15405;BME280;7801;48.124;11.590;2023-05-23T05:05:49;95253.66;;;17.08;92.35
15405;BME280;7801;48.124;11.590;2023-05-23T05:08:14;95253.56;;;17.16;91.98
15405;BME280;7801;48.124;11.590;2023-05-23T05:10:44;95262.06;;;17.18;91.34
15405;BME280;7801;48.124;11.590;2023-05-23T05:13:09;95256.12;;;17.13;91.61
15405;BME280;7801;48.124;11.590;2023-05-23T05:15:35;95250.66;;;17.22;92.19
15405;BME280;7801;48.124;11.590;2023-05-23T05:18:00;95255.69;;;17.11;91.98
15405;BME280;7801;48.124;11.590;2023-05-23T05:20:25;95256.47;;;17.24;91.64
15405;BME280;7801;48.124;11.590;2023-05-23T05:22:55;95259.47;;;17.34;91.37
15405;BME280;7801;48.124;11.590;2023-05-23T05:25:21;95256.22;;;17.29;90.96
15405;BME280;7801;48.124;11.590;2023-05-23T05:27:46;95255.78;;;17.27;91.18
15405;BME280;7801;48.124;11.590;2023-05-23T05:30:12;95246.94;;;17.38;91.30
15405;BME280;7801;48.124;11.590;2023-05-23T05:32:37;95249.06;;;17.33;90.83
15405;BME280;7801;48.124;11.590;2023-05-23T05:35:03;95251.53;;;17.26;91.71
15405;BME280;7801;48.124;11.590;2023-05-23T05:37:28;95248.72;;;17.34;91.45
15405;BME280;7801;48.124;11.590;2023-05-23T05:39:54;95245.59;;;17.32;91.68
15405;BME280;7801;48.124;11.590;2023-05-23T05:42:20;95248.16;;;17.29;91.34
15405;BME280;7801;48.124;11.590;2023-05-23T05:44:46;95246.72;;;17.43;91.12
15405;BME280;7801;48.124;11.590;2023-05-23T05:47:12;95248.38;;;17.48;91.15
15405;BME280;7801;48.124;11.590;2023-05-23T05:49:38;95251.50;;;17.50;91.14
15405;BME280;7801;48.124;11.590;2023-05-23T05:52:05;95251.81;;;17.48;91.04
15405;BME280;7801;48.124;11.590;2023-05-23T05:54:31;95247.22;;;17.61;90.83
15405;BME280;7801;48.124;11.590;2023-05-23T05:56:56;95250.69;;;17.74;90.15
15405;BME280;7801;48.124;11.590;2023-05-23T05:59:21;95257.47;;;17.83;90.02
15405;BME280;7801;48.124;11.590;2023-05-23T06:01:47;95274.56;;;17.91;89.51
15405;BME280;7801;48.124;11.590;2023-05-23T06:04:12;95265.25;;;18.01;88.81
15405;BME280;7801;48.124;11.590;2023-05-23T06:06:38;95263.25;;;17.98;89.05
15405;BME280;7801;48.124;11.590;2023-05-23T06:09:03;95273.31;;;18.01;89.33
15405;BME280;7801;48.124;11.590;2023-05-23T06:11:29;95274.63;;;18.07;89.15
15405;BME280;7801;48.124;11.590;2023-05-23T06:13:54;95275.69;;;18.18;88.32
15405;BME280;7801;48.124;11.590;2023-05-23T06:16:20;95275.00;;;18.21;88.20
15405;BME280;7801;48.124;11.590;2023-05-23T06:18:45;95277.91;;;18.28;87.81
15405;BME280;7801;48.124;11.590;2023-05-23T06:21:10;95271.31;;;18.26;88.03
15405;BME280;7801;48.124;11.590;2023-05-23T06:23:36;95275.63;;;18.30;87.65
15405;BME280;7801;48.124;11.590;2023-05-23T06:26:01;95269.91;;;18.32;87.22
15405;BME280;7801;48.124;11.590;2023-05-23T06:28:26;95273.91;;;18.38;86.94
15405;BME280;7801;48.124;11.590;2023-05-23T06:30:52;95272.88;;;18.42;86.75
15405;BME280;7801;48.124;11.590;2023-05-23T06:33:17;95275.47;;;18.39;87.05
15405;BME280;7801;48.124;11.590;2023-05-23T06:35:42;95276.13;;;18.48;86.15
15405;BME280;7801;48.124;11.590;2023-05-23T06:38:08;95277.84;;;18.56;85.15
15405;BME280;7801;48.124;11.590;2023-05-23T06:40:33;95279.31;;;18.53;85.33
15405;BME280;7801;48.124;11.590;2023-05-23T06:42:58;95283.09;;;18.65;85.19
15405;BME280;7801;48.124;11.590;2023-05-23T06:45:23;95275.47;;;18.67;85.37
15405;BME280;7801;48.124;11.590;2023-05-23T06:47:49;95276.31;;;18.71;85.03
15405;BME280;7801;48.124;11.590;2023-05-23T06:50:14;95277.63;;;18.77;84.75
15405;BME280;7801;48.124;11.590;2023-05-23T06:52:40;95282.22;;;18.76;84.71
15405;BME280;7801;48.124;11.590;2023-05-23T06:55:07;95282.75;;;18.66;84.88
15405;BME280;7801;48.124;11.590;2023-05-23T06:57:32;95286.22;;;18.67;85.36
15405;BME280;7801;48.124;11.590;2023-05-23T06:59:58;95278.75;;;18.76;85.11
15405;BME280;7801;48.124;11.590;2023-05-23T07:02:23;95284.66;;;18.81;84.96
15405;BME280;7801;48.124;11.590;2023-05-23T07:04:48;95285.97;;;18.87;84.91
15405;BME280;7801;48.124;11.590;2023-05-23T07:07:14;95291.44;;;18.91;84.97
15405;BME280;7801;48.124;11.590;2023-05-23T07:09:39;95288.66;;;19.03;84.68
15405;BME280;7801;48.124;11.590;2023-05-23T07:12:05;95283.37;;;19.07;84.32
15405;BME280;7801;48.124;11.590;2023-05-23T07:14:31;95290.66;;;19.06;84.47
15405;BME280;7801;48.124;11.590;2023-05-23T07:16:56;95288.56;;;19.15;84.03
15405;BME280;7801;48.124;11.590;2023-05-23T07:19:21;95288.03;;;19.26;83.74
15405;BME280;7801;48.124;11.590;2023-05-23T07:21:47;95284.09;;;19.39;83.46
15405;BME280;7801;48.124;11.590;2023-05-23T07:24:12;95289.41;;;19.51;82.62
15405;BME280;7801;48.124;11.590;2023-05-23T07:26:40;95299.72;;;19.49;82.53
15405;BME280;7801;48.124;11.590;2023-05-23T07:29:06;95302.88;;;19.51;81.78
15405;BME280;7801;48.124;11.590;2023-05-23T07:31:31;95302.25;;;19.42;82.32
15405;BME280;7801;48.124;11.590;2023-05-23T07:33:57;95299.63;;;19.45;82.48
15405;BME280;7801;48.124;11.590;2023-05-23T07:36:22;95301.81;;;19.40;82.76
15405;BME280;7801;48.124;11.590;2023-05-23T07:38:47;95305.03;;;19.45;82.99
15405;BME280;7801;48.124;11.590;2023-05-23T07:41:13;95303.38;;;19.41;82.25
15405;BME280;7801;48.124;11.590;2023-05-23T07:43:39;95302.00;;;19.31;83.12
15405;BME280;7801;48.124;11.590;2023-05-23T07:46:04;95297.41;;;19.32;83.38
15405;BME280;7801;48.124;11.590;2023-05-23T07:48:30;95301.13;;;19.43;82.65
15405;BME280;7801;48.124;11.590;2023-05-23T07:50:56;95307.47;;;19.50;81.93
15405;BME280;7801;48.124;11.590;2023-05-23T07:53:21;95306.00;;;19.53;82.16
15405;BME280;7801;48.124;11.590;2023-05-23T07:55:46;95310.75;;;19.44;82.87
15405;BME280;7801;48.124;11.590;2023-05-23T07:58:12;95308.91;;;19.48;81.92
15405;BME280;7801;48.124;11.590;2023-05-23T08:00:37;95312.22;;;19.41;82.40
15405;BME280;7801;48.124;11.590;2023-05-23T08:03:03;95306.31;;;19.36;82.67
15405;BME280;7801;48.124;11.590;2023-05-23T08:05:28;95315.13;;;19.33;82.95
15405;BME280;7801;48.124;11.590;2023-05-23T08:07:53;95317.81;;;19.33;81.97
15405;BME280;7801;48.124;11.590;2023-05-23T08:10:19;95312.75;;;19.15;82.91
15405;BME280;7801;48.124;11.590;2023-05-23T08:12:44;95320.31;;;19.26;82.85
15405;BME280;7801;48.124;11.590;2023-05-23T08:15:10;95316.31;;;19.19;83.63
15405;BME280;7801;48.124;11.590;2023-05-23T08:17:35;95318.12;;;19.15;83.28
15405;BME280;7801;48.124;11.590;2023-05-23T08:20:01;95316.56;;;19.14;83.53
15405;BME280;7801;48.124;11.590;2023-05-23T08:22:27;95318.56;;;19.17;83.73
15405;BME280;7801;48.124;11.590;2023-05-23T08:24:52;95323.00;;;19.26;83.26
15405;BME280;7801;48.124;11.590;2023-05-23T08:27:18;95322.38;;;19.16;83.56
15405;BME280;7801;48.124;11.590;2023-05-23T08:29:43;95323.00;;;19.26;83.75
15405;BME280;7801;48.124;11.590;2023-05-23T08:32:08;95321.06;;;19.42;83.16
15405;BME280;7801;48.124;11.590;2023-05-23T08:34:34;95320.03;;;19.46;82.85
15405;BME280;7801;48.124;11.590;2023-05-23T08:36:59;95328.09;;;19.46;82.32
15405;BME280;7801;48.124;11.590;2023-05-23T08:39:25;95319.03;;;19.51;81.55
15405;BME280;7801;48.124;11.590;2023-05-23T08:41:51;95331.75;;;19.54;81.86
15405;BME280;7801;48.124;11.590;2023-05-23T08:44:16;95330.38;;;19.60;81.15
15405;BME280;7801;48.124;11.590;2023-05-23T08:46:45;95334.19;;;19.43;81.33
15405;BME280;7801;48.124;11.590;2023-05-23T08:49:12;95338.09;;;19.46;81.20
15405;BME280;7801;48.124;11.590;2023-05-23T08:51:41;95342.34;;;19.47;81.31
15405;BME280;7801;48.124;11.590;2023-05-23T08:54:07;95338.09;;;19.46;80.98
15405;BME280;7801;48.124;11.590;2023-05-23T08:56:34;95333.50;;;19.46;80.69
15405;BME280;7801;48.124;11.590;2023-05-23T08:58:59;95338.47;;;19.29;81.88
15405;BME280;7801;48.124;11.590;2023-05-23T09:01:25;95340.81;;;19.30;81.84
15405;BME280;7801;48.124;11.590;2023-05-23T09:03:51;95337.69;;;19.28;82.27
15405;BME280;7801;48.124;11.590;2023-05-23T09:06:19;95345.84;;;19.32;82.07
15405;BME280;7801;48.124;11.590;2023-05-23T09:08:45;95344.78;;;19.36;81.38
15405;BME280;7801;48.124;11.590;2023-05-23T09:11:11;95349.13;;;19.25;81.82
15405;BME280;7801;48.124;11.590;2023-05-23T09:13:38;95341.91;;;19.45;81.26
15405;BME280;7801;48.124;11.590;2023-05-23T09:16:09;95348.16;;;19.49;80.79
15405;BME280;7801;48.124;11.590;2023-05-23T09:18:39;95351.03;;;19.56;81.80
15405;BME280;7801;48.124;11.590;2023-05-23T09:21:07;95349.38;;;19.67;81.14
15405;BME280;7801;48.124;11.590;2023-05-23T09:23:37;95361.63;;;19.65;80.36
15405;BME280;7801;48.124;11.590;2023-05-23T09:26:10;95355.72;;;19.59;80.54
15405;BME280;7801;48.124;11.590;2023-05-23T09:28:38;95353.66;;;19.52;81.92
15405;BME280;7801;48.124;11.590;2023-05-23T09:31:05;95358.84;;;19.45;81.90
15405;BME280;7801;48.124;11.590;2023-05-23T09:33:48;95349.75;;;19.50;81.82
15405;BME280;7801;48.124;11.590;2023-05-23T09:36:15;95350.94;;;19.37;82.90
15405;BME280;7801;48.124;11.590;2023-05-23T09:38:43;95347.72;;;19.47;82.16
15405;BME280;7801;48.124;11.590;2023-05-23T09:41:09;95346.78;;;19.55;81.87
15405;BME280;7801;48.124;11.590;2023-05-23T09:43:39;95336.72;;;19.52;82.08
15405;BME280;7801;48.124;11.590;2023-05-23T09:46:11;95351.47;;;19.42;81.95
15405;BME280;7801;48.124;11.590;2023-05-23T09:48:37;95351.37;;;19.39;82.33
15405;BME280;7801;48.124;11.590;2023-05-23T09:51:04;95365.59;;;19.39;82.17
15405;BME280;7801;48.124;11.590;2023-05-23T09:53:29;95358.75;;;19.42;81.96
15405;BME280;7801;48.124;11.590;2023-05-23T09:55:58;95350.94;;;19.37;82.11
15405;BME280;7801;48.124;11.590;2023-05-23T09:58:25;95362.22;;;19.42;82.22
15405;BME280;7801;48.124;11.590;2023-05-23T10:00:52;95355.62;;;19.40;82.37
15405;BME280;7801;48.124;11.590;2023-05-23T10:03:26;95361.09;;;19.28;82.44
15405;BME280;7801;48.124;11.590;2023-05-23T10:05:56;95350.50;;;19.35;81.50
15405;BME280;7801;48.124;11.590;2023-05-23T10:08:26;95357.19;;;19.25;81.51
15405;BME280;7801;48.124;11.590;2023-05-23T10:13:21;95351.47;;;19.27;81.41
15405;BME280;7801;48.124;11.590;2023-05-23T10:15:50;95356.41;;;19.25;82.11
15405;BME280;7801;48.124;11.590;2023-05-23T10:18:22;95345.56;;;19.37;81.25
15405;BME280;7801;48.124;11.590;2023-05-23T10:20:52;95339.31;;;19.48;81.63
15405;BME280;7801;48.124;11.590;2023-05-23T10:23:19;95344.37;;;19.50;81.09
15405;BME280;7801;48.124;11.590;2023-05-23T10:25:45;95341.00;;;19.53;81.19
15405;BME280;7801;48.124;11.590;2023-05-23T10:28:12;95346.94;;;19.46;81.72
15405;BME280;7801;48.124;11.590;2023-05-23T10:30:38;95334.88;;;19.56;80.72
15405;BME280;7801;48.124;11.590;2023-05-23T10:33:40;95341.81;;;19.57;80.46
15405;BME280;7801;48.124;11.590;2023-05-23T10:36:14;95342.78;;;19.49;80.50
15405;BME280;7801;48.124;11.590;2023-05-23T10:39:20;95334.19;;;19.43;79.62
15405;BME280;7801;48.124;11.590;2023-05-23T10:41:57;95333.50;;;19.46;80.40
15405;BME280;7801;48.124;11.590;2023-05-23T10:44:26;95332.00;;;19.49;80.59
15405;BME280;7801;48.124;11.590;2023-05-23T10:46:54;95335.41;;;19.46;80.63
15405;BME280;7801;48.124;11.590;2023-05-23T10:49:39;95329.31;;;19.49;80.05
15405;BME280;7801;48.124;11.590;2023-05-23T10:52:06;95347.12;;;19.38;80.12
15405;BME280;7801;48.124;11.590;2023-05-23T10:54:45;95342.84;;;19.37;79.08
15405;BME280;7801;48.124;11.590;2023-05-23T10:57:15;95348.34;;;19.25;79.52
15405;BME280;7801;48.124;11.590;2023-05-23T10:59:41;95348.69;;;19.39;79.06
15405;BME280;7801;48.124;11.590;2023-05-23T11:02:18;95348.84;;;19.46;78.53
15405;BME280;7801;48.124;11.590;2023-05-23T11:07:45;95343.03;;;19.60;77.13
15405;BME280;7801;48.124;11.590;2023-05-23T11:10:11;95338.91;;;19.81;76.66
15405;BME280;7801;48.124;11.590;2023-05-23T11:12:42;95339.81;;;20.05;75.89
15405;BME280;7801;48.124;11.590;2023-05-23T11:15:18;95331.53;;;20.13;75.75
15405;BME280;7801;48.124;11.590;2023-05-23T11:17:57;95330.09;;;20.19;75.88
15405;BME280;7801;48.124;11.590;2023-05-23T11:20:25;95324.34;;;20.21;75.73
15405;BME280;7801;48.124;11.590;2023-05-23T11:23:00;95331.72;;;20.24;75.19
15405;BME280;7801;48.124;11.590;2023-05-23T11:26:02;95319.75;;;20.21;73.90
15405;BME280;7801;48.124;11.590;2023-05-23T11:28:27;95325.62;;;20.27;74.17
15405;BME280;7801;48.124;11.590;2023-05-23T11:30:53;95317.69;;;20.34;73.91
15405;BME280;7801;48.124;11.590;2023-05-23T11:33:18;95305.22;;;20.26;73.85
15405;BME280;7801;48.124;11.590;2023-05-23T11:35:46;95313.87;;;20.35;71.97
15405;BME280;7801;48.124;11.590;2023-05-23T11:38:14;95303.38;;;20.49;72.85
15405;BME280;7801;48.124;11.590;2023-05-23T11:40:42;95306.22;;;20.56;71.54
15405;BME280;7801;48.124;11.590;2023-05-23T11:43:13;95314.44;;;20.64;71.14
15405;BME280;7801;48.124;11.590;2023-05-23T11:45:39;95302.22;;;20.70;70.99
15405;BME280;7801;48.124;11.590;2023-05-23T11:48:06;95301.72;;;20.64;70.83
15405;BME280;7801;48.124;11.590;2023-05-23T11:50:32;95295.97;;;20.66;69.83
15405;BME280;7801;48.124;11.590;2023-05-23T11:52:58;95297.25;;;20.72;70.64
15405;BME280;7801;48.124;11.590;2023-05-23T11:55:23;95298.13;;;20.79;69.52
15405;BME280;7801;48.124;11.590;2023-05-23T11:57:49;95297.97;;;20.91;70.21
15405;BME280;7801;48.124;11.590;2023-05-23T12:00:16;95301.88;;;20.94;69.83
15405;BME280;7801;48.124;11.590;2023-05-23T12:02:43;95299.91;;;20.91;69.89
15405;BME280;7801;48.124;11.590;2023-05-23T12:05:10;95294.06;;;20.89;70.52
15405;BME280;7801;48.124;11.590;2023-05-23T12:07:39;95291.44;;;20.92;70.24
15405;BME280;7801;48.124;11.590;2023-05-23T12:10:06;95297.25;;;20.95;69.90
15405;BME280;7801;48.124;11.590;2023-05-23T12:12:31;95305.28;;;20.91;69.40
15405;BME280;7801;48.124;11.590;2023-05-23T12:14:57;95298.63;;;20.85;69.68
15405;BME280;7801;48.124;11.590;2023-05-23T12:17:23;95298.37;;;20.71;69.70
15405;BME280;7801;48.124;11.590;2023-05-23T12:19:48;95291.44;;;20.70;69.78
15405;BME280;7801;48.124;11.590;2023-05-23T12:22:14;95289.88;;;20.69;69.04
15405;BME280;7801;48.124;11.590;2023-05-23T12:24:45;95293.34;;;20.69;69.75
15405;BME280;7801;48.124;11.590;2023-05-23T12:27:11;95296.47;;;20.71;70.29
15405;BME280;7801;48.124;11.590;2023-05-23T12:29:37;95299.59;;;20.73;69.54
15405;BME280;7801;48.124;11.590;2023-05-23T12:32:06;95301.50;;;20.73;70.41
15405;BME280;7801;48.124;11.590;2023-05-23T12:34:32;95311.56;;;20.76;70.22
15405;BME280;7801;48.124;11.590;2023-05-23T12:36:58;95306.47;;;20.71;69.63
15405;BME280;7801;48.124;11.590;2023-05-23T12:39:26;95305.63;;;20.67;69.43
15405;BME280;7801;48.124;11.590;2023-05-23T12:41:52;95303.34;;;20.69;68.93
15405;BME280;7801;48.124;11.590;2023-05-23T12:44:20;95305.34;;;20.72;69.68
15405;BME280;7801;48.124;11.590;2023-05-23T12:46:46;95303.94;;;20.81;69.87
15405;BME280;7801;48.124;11.590;2023-05-23T12:49:12;95302.62;;;20.72;71.53
15405;BME280;7801;48.124;11.590;2023-05-23T12:51:37;95295.97;;;20.66;72.25
15405;BME280;7801;48.124;11.590;2023-05-23T12:54:03;95300.53;;;20.62;71.39
15405;BME280;7801;48.124;11.590;2023-05-23T12:56:28;95301.22;;;20.58;70.89
15405;BME280;7801;48.124;11.590;2023-05-23T12:58:53;95298.59;;;20.62;70.10
15405;BME280;7801;48.124;11.590;2023-05-23T13:01:19;95308.38;;;20.70;69.03
15405;BME280;7801;48.124;11.590;2023-05-23T13:03:45;95307.31;;;20.75;67.60
15405;BME280;7801;48.124;11.590;2023-05-23T13:06:11;95304.72;;;20.82;68.33
15405;BME280;7801;48.124;11.590;2023-05-23T13:08:36;95301.97;;;21.01;68.69
15405;BME280;7801;48.124;11.590;2023-05-23T13:11:02;95311.59;;;20.99;69.52
15405;BME280;7801;48.124;11.590;2023-05-23T13:13:27;95317.00;;;20.79;69.16